Lillis, Kansas
Current Conditions -  °F | °C
As of 12:35 PM on Thursday 30 Oct 2014 (Local Time) from KMYZ Reporting Station
Clear Clear  
Wind Chill: 64°   Ceiling: Unl
Heat Index: 64°   Visibility: 10mi
Dew Point: 39°   Wind: 21mph
Humidity: 40%   Direction: 330°NNW
Pressure: 30.09"   Gusts: 26mph
Location:  39.7199°N, 96.4404°W
Report Text: KMYZ 301735Z AUTO 33018G23KT 10SM CLR 18/04 A3009 RMK AO2
Loading
Personal Weather Stations






























Interactive Weather Map New forecast layout! Learn more

10-Day Weather Forecast

Advertisements
Track Severe Weather on mobile